LFMN Airport Information

Runway Information
Runway 04R Length 9721 ft width 148 ft
Elevation 10 ft Threshold ft Heading 45
Runway 22L Length 9721 ft Width 148 ft
Elevation 12 ft Threshold ft Heading 225
Runway 04L Length 8622 ft width 148 ft
Elevation 11 ft Threshold ft Heading 45
Runway 22R Length 8622 ft Width 148 ft
Elevation 10 ft Threshold 575 ft Heading 225
Airport Frequencies
Type A/D Name NICE APP Frequency 124.175 MHZ
Type ATIS Name NICE ATIS Frequency 129.6 MHZ
Type GND Name NICE GND Frequency 121.775 MHZ
Type TWR Name NICE TWR Frequency 118.7 MHZ
Airport Navaids
Type VOR-DME Name Nice Cote D Azur Frequency 109650 KHZ
Type VOR-DME Name Cagnes Sur Mer Frequency 109200 KHZ
Type NDB Name Nice Frequency 399 KHZ
Type VOR-DME Name Nice Frequency 112400 KHZ
Airport Weather Information & NOTAM
ADDS - METARS form results

(1046 UTC 30 June 2022)
Data provider http://aviationweather.gov/metar/data/
 
METAR text: LFMN 301030Z 11008KT 9999 FEW023 25/19 Q1014 NOSIG
Conditions at: LFMN (NICE/COTE D'AZUR, FR) observed 1030 UTC 30 June 2022
Temperature: 25.0°C (77°F)
Dewpoint: 19.0°C (66°F) [RH = 69%]
Pressure (altimeter): 29.94 inches Hg (1014.0 mb)
Winds: from the ESE (110 degrees) at 9 MPH (8 knots; 4.1 m/s)
Visibility: 6 or more miles (10+ km)
Ceiling: at least 12,000 feet AGL
Clouds: few clouds at 2300 feet AGL
Weather: no significant weather observed at this time

METAR text: LFMN 301000Z 11010KT 9999 FEW023 26/19 Q1013 NOSIG
Conditions at: LFMN (NICE/COTE D'AZUR, FR) observed 1000 UTC 30 June 2022
Temperature: 26.0°C (79°F)
Dewpoint: 19.0°C (66°F) [RH = 65%]
Pressure (altimeter): 29.91 inches Hg (1013.0 mb)
Winds: from the ESE (110 degrees) at 12 MPH (10 knots; 5.1 m/s)
Visibility: 6 or more miles (10+ km)
Ceiling: at least 12,000 feet AGL
Clouds: few clouds at 2300 feet AGL
Weather: no significant weather observed at this time

Forecast for: LFMN (NICE/COTE D'AZUR, FR)
Text: TAF LFMN 300800Z 3009/0115 10010KT CAVOK
Forecast period: 0900 UTC 30 June 2022 to 0700 UTC 01 July 2022
Forecast type: FROM: standard forecast or significant change
Winds: from the E (100 degrees) at 12 MPH (10 knots; 5.1 m/s)
Visibility: 6 or more miles (10+ km)
Ceiling: unknown
Clouds: missing
Weather: NSW  (no significant weather)
Text: PROB40
Forecast period: 0100 to 0300 UTC 01 July 2022
Forecast type: TEMPORARY: The following changes expected for less than half the time period
Winds: from the NNW (340 degrees) at 7 MPH (6 knots; 3.1 m/s)
Visibility: missing
Ceiling: 1400 feet AGL
Clouds: broken clouds at 1400 feet AGL
Weather: no significant weather forecast for this period
Text: TEMPO 0101/0103 34006KT BKN014
Forecast period: 0700 to 1500 UTC 01 July 2022
Forecast type: BECOMING: Conditions expected to become as follows by 0900 UTC 01 July 2022
Winds: from the SE (140 degrees) at 12 MPH (10 knots; 5.1 m/s)
Visibility: 6 or more miles (10+ km)
Ceiling: unknown
Clouds: missing
Weather: NSW  (no significant weather)